Maryland AWOS List, Phone Numbers

USA |  
| Search AWOS

Rocky Mountain States: Montana | Wyoming | Colorado | New Mexico

Complete weather reports: Maryland

Legend: KFNL = METAR available Follow your local AWOS on AV Mobile = METAR available on AV Mobile
Station Maryland Location Frequency Phone
KAPGFAA ID APG, KAPG 222248Z 21005KT 7SM BKN150 31/24 A2986 Follow KAPG on AV Mobile Phillips Army Air Field / Aberdeen
K61WICAO ID K61W Annapolis Coast Guard Station
KNAKICAO ID KNAK, KNAK 241754Z AUTO 13006KT 10SM CLR 31/21 A2999 RMK AO2 SLP156 T03110211 10317 20283 50001 Follow KNAK on AV Mobile ANNAPOLIS US NAVAL ACADEMY
KLWXICAO ID KLWX Baltimore / DC Nexrad
KDMHICAO ID KDMH, KDMH 241754Z AUTO 34/15 A2999 RMK AO1 SLP155 T03440150 10344 20283 58000 Follow KDMH on AV Mobile BALTIMORE DOWNTOWN
KMTNFAA ID MTN, AWOS-3PT, KMTN 241745Z 13005KT 10SM BKN200 32/21 A3001 Follow KMTN on AV Mobile Baltimore / Martin 124.925 410-682-8848
KBWIFAA ID BWI, ASOS, KBWI 241754Z 15005KT 10SM BKN250 33/16 A2999 Follow KBWI on AV Mobile BALTIMORE-WASHINGTON INTERNATIONAL 410-691-1278
4MDFAA ID 4MD, Belfort PIER 7
KCGEFAA ID CGE, AWOS-3, KCGE 241754Z AUTO 17003KT 10SM CLR 33/19 A2999 RMK AO1 Follow KCGE on AV Mobile CAMBRIDGE 120.675 410-228-7559
KADWFAA ID ADW, KADW 241758Z AUTO 10005KT 10SM FEW200 32/19 A3000 RMK AO2 SLP163 T03220193 10322 20263 50001 Follow KADW on AV Mobile Camp Springs / Andrews Air Force Base
W32FAA ID W32, Belfort WASHINGTON EXECUTIVE/HYDE FIELD
KCGSFAA ID CGS, AWOS-3, KCGS 241755Z AUTO 06003KT 10SM CLR 32/17 A2999 RMK AO1 Follow KCGS on AV Mobile COLLEGE PARK 121.225 301-864-5497
K66WICAO ID K66W Cove Point Coast Guard Light Station
KCBEFAA ID CBE, AWOS-3, KCBE 241757Z AUTO 12005KT 10SM SCT065 33/21 A3003 Follow KCBE on AV Mobile Cumberland, Greater Cumberland Regional Airport 128.625 304-738-0451
KESNFAA ID ESN, AWOS-3, KESN 241745Z 08003KT 10SM SKC 34/23 A3003 Follow KESN on AV Mobile Easton / Newman Field 124.475 410-822-2817
KFMEFAA ID FME, AWOS-3, KFME 241754Z AUTO 19004KT 10SM CLR 32/19 A3002 RMK AO1 Follow KFME on AV Mobile Fort Meade / Tipton 123.925
KJWXICAO ID KJWX Fort Ritchie
KFDKFAA ID FDK, AWOS-3, KFDK 241750Z 25004KT 10SM SKC 34/17 A3003 Follow KFDK on AV Mobile Frederick, Frederick Municipal Airport 124.875 301-600-1457
KGAIFAA ID GAI, AWOS-3, KGAI 241815Z AUTO 09003KT 10SM FEW060 33/19 A3004 RMK AO1 Follow KGAI on AV Mobile GAITHERSBURG 128.275 301-977-2971
KHGRFAA ID HGR, ASOS, KHGR 241753Z 00000KT 10SM CLR 33/17 A3001 RMK AO2 SLP164 6//// T03330167 10333 20244 58005 PNO Follow KHGR on AV Mobile HAGERSTOWN REGIONAL AIRPORT 126.375 301-745-3497
K2W6FAA ID 2W6, AWOS-3, K2W6 241756Z AUTO 08006KT 10SM SCT070 34/15 A3001 RMK AO1 Follow K2W6 on AV Mobile LEONARDTOWN 119.575 301-373-6514
K2G4FAA ID 2G4, AWOS-3, K2G4 241755Z AUTO 22005KT 10SM CLR 27/19 A3015 RMK AO1 Follow K2G4 on AV Mobile OAKLAND 120.125 301-746-8443
KW30ICAO ID KW30 Ocean City
KN80ICAO ID KN80 Ocean City, Ocean City Municipal Airport
KOXBFAA ID OXB, ASOS, KOXB 241753Z AUTO 10005KT 10SM CLR 28/23 A3001 RMK AO2 SLP161 T02780233 10294 20272 51006 TSNO Follow KOXB on AV Mobile OCEAN CITY MUNICIPAL AIRPORT 119.025 410-213-1530
KNHKFAA ID NHK, KNHK 241752Z 11005KT 10SM FEW050 OVC300 33/18 A2999 RMK AO2 SLP156 T03330178 10344 20283 50004 $ Follow KNHK on AV Mobile NAS PATUXENT RIVER MD
KSBYFAA ID SBY, ASOS, KSBY 241754Z VRB04KT 10SM CLR 33/19 A2999 Follow KSBY on AV Mobile SALISBURY-WICOMICO CTY REG 118.325 410-341-0868
KNUIFAA ID NUI, KNUI 241753Z AUTO 15006KT 10SM CLR 35/20 A2998 RMK AO2 SLP152 T03500200 10356 20289 50003 Follow KNUI on AV Mobile KNUI WEBSTER FIELD ANNEX
KW29FAA ID W29, AWOS-3, KW29 241750Z AUTO 32006KT 10SM CLR 30/22 A3000 RMK AO2 Follow KW29 on AV Mobile STEVENSVILLE 120.575 410-643-8795
K67WICAO ID K67W Stillpond Coast Guard Station
K65WICAO ID K65W Thomas Point Coast Guard Station
KDMWFAA ID DMW, AWOS-3, KDMW 241755Z AUTO 24003KT 10SM CLR 33/26 A3003 RMK AO2 Follow KDMW on AV Mobile WESTMINSTER 121.25 410-876-1281

Click on the AV Mobile icon AV Mobile icon by any station to follow that AWOS feed on AirportView.net Mobile.

Garmin Target Trend Avemco Insurance Company